Tropical Cyclones
[Index]
Main Index Home Page Stock Weather Photos Extreme Storms Discussion Storm News and Storm Chasing Reports Tropical Cyclones / Hurricanes / Typhoons Weather Data and Links Wild Fires / Bushfires Weather Observation Techniques Weather Picture Catalogue Tornado Pictures and Reports Stock Video Footage and DVDs for sale
Season 2017-2018 Tropical Cyclone DAHLIA Track Map
Season 2017-2018 Summaries (Operational Data): [AU] [SIO] [SPAC] [SH]
<<- Previous TC | 2017-2018 Season | Next TC ->>

click for intensity scale information  Lat/long Grid: Show Hide

 Date Labels: Show Hide

Operational Tropical Cyclone Data : JTWC Advisories

Name: DAHLIA
Number: 1801

23 Nov 2017 12:00 UTC to 07 Dec 2017 02:00 UTC

    date/time    lat    long     hPa   cat  kts
2017-11-23 12    4.2    93.6    1006         20          
2017-11-24 00    4.3    94.7    1006         20          
2017-11-24 06    4.9    94.8    1006         20          
2017-11-24 12    5.4    95.1    1005         20          
2017-11-24 18    5.0    95.0    1010         15          
2017-11-25 00    5.3    94.1    1010         15          
2017-11-25 06    6.0    93.5    1004         25          
2017-11-25 12    6.5    93.1    1004         25          
2017-11-25 18    6.5    94.0    1005         25          
2017-11-26 00    6.0    93.5    1005         25          
2017-11-26 06    6.4    93.3    1004         25          
2017-11-26 12    6.7    93.8    1005         25          
2017-11-26 18    6.3    94.1    1005         20          
2017-11-27 00    5.5    95.6    1004         20          
2017-11-27 06    6.0    96.0    1005         20          
2017-11-27 12    6.7    97.1     998         20          
2017-11-27 18    7.4    97.8                 25          
2017-11-28 00    7.7    98.4     998         25          
2017-11-28 06    8.0    99.1                 25          
2017-11-28 12    8.2    99.8    1004         25          
2017-11-28 18    8.4   100.4                 25          
2017-11-29 00    8.5   101.0    1004         30          
2017-11-29 06    8.8   101.9                 30          
2017-11-29 12    8.9   102.9    1003         30          
2017-11-29 18    8.9   103.4    1003         30          
2017-11-30 00    8.9   104.4     996    1    35          
2017-11-30 06    9.1   106.3            1    35          
2017-11-30 12    9.3   107.6     997    1    45          
2017-11-30 18    9.6   108.1     994    1    45          
2017-12-01 00    9.7   109.0     985    2    50          
2017-12-01 06   10.2   109.6            2    50          
2017-12-01 12   10.5   110.5     985    2    50          
2017-12-01 18   10.7   110.4     989    2    55          
2017-12-02 00   10.9   110.7     993    2    50          
2017-12-02 06   11.0   111.3            1    45          
2017-12-02 12   11.2   112.0     996    1    35          
2017-12-02 18   11.8   112.4    1003    1    35          
2017-12-03 00   12.5   112.4    1004    1    35          
2017-12-03 06   13.8   112.4            1    35          
2017-12-03 12   14.8   112.4     996    1    35          
2017-12-03 18   15.9   112.0     996    1    35          
2017-12-04 00   16.9   111.7    1000         30          
2017-12-04 05   17.1   110.9                             
2017-12-04 12   18.0   111.3    1004         25          
2017-12-05 00   17.8   110.5    1007         20          
2017-12-05 06   17.3   110.4                             
2017-12-05 12   16.9   110.4    1007         20          
2017-12-05 18   16.8   110.6                             
2017-12-06 00   16.3   111.1    1006         20          
2017-12-06 06   15.9   111.2                             
2017-12-06 12   15.2   111.7    1005         20          
2017-12-06 18   14.8   112.3    1010         15          
2017-12-07 00   14.2   113.0                             
2017-12-07 02   14.1   113.3                             
Winds are 10-min average.

Tropical cyclone tracks developed by Michael Bath using operational warnings and advisories and Google Maps.


[Australian Severe Weather index] [Copyright Notice] [Email Contacts] [Search This Site] [Privacy Policy]
Document: tropical_cyclone_dahlia.htm Updated: 11 March 2020